Time;durP1;ratioP1;P1;durP2;ratioP2;P2;SDS_P1;SDS_P2;PMS_P1;PMS_P2;Temp;Humidity;BMP_temperature;BMP_pressure;BME280_temperature;BME280_humidity;BME280_pressure;Samples;Min_cycle;Max_cycle;Signal;HPM_P1;HPM_P2
2022/01/07 00:01:30;;;;;;;;;;;3.30;99.90;;;;;;5082189;28;19926;-45
2022/01/07 00:03:56;;;;;;;;;;;3.20;99.90;;;;;;5064050;28;20249;-44
2022/01/07 00:06:22;;;;;;;;;;;3.20;99.90;;;;;;5048538;28;19920;-46
2022/01/07 00:08:47;;;;;;;;;;;3.30;99.90;;;;;;5059820;28;19924;-47
2022/01/07 00:11:14;;;;;;;;;;;3.20;99.90;;;;;;5057149;28;19932;-45
2022/01/07 00:13:39;;;;;;;;;;;3.20;99.90;;;;;;5050873;28;20400;-45
2022/01/07 00:16:05;;;;;;;;;;;3.20;99.90;;;;;;5062307;28;19920;-43
2022/01/07 00:18:31;;;;;;;;;;;3.30;99.90;;;;;;5081043;28;19924;-46
2022/01/07 00:20:57;;;;;;;;;;;3.30;99.90;;;;;;5061875;28;19999;-47
2022/01/07 00:23:22;;;;;;;;;;;3.30;99.90;;;;;;5044638;28;19935;-45
2022/01/07 00:25:49;;;;;;;;;;;3.20;99.90;;;;;;5041522;28;19921;-45
2022/01/07 00:28:14;;;;;;;;;;;3.30;99.90;;;;;;5045327;28;19916;-47
2022/01/07 00:30:40;;;;;;;;;;;3.20;99.90;;;;;;5080931;28;19923;-46
2022/01/07 00:33:06;;;;;;;;;;;3.20;99.90;;;;;;5058159;28;19989;-47
2022/01/07 00:35:32;;;;;;;;;;;3.20;99.90;;;;;;5047454;28;19979;-45
2022/01/07 00:37:58;;;;;;;;;;;3.20;99.90;;;;;;5060902;28;19927;-45
2022/01/07 00:40:24;;;;;;;;;;;3.20;99.90;;;;;;5033223;28;19924;-43
2022/01/07 00:42:52;;;;;;;;;;;3.20;99.90;;;;;;5063654;28;20077;-47
2022/01/07 00:45:22;;;;;;;;;;;3.20;99.90;;;;;;5048170;28;19923;-45
2022/01/07 00:47:49;;;;;;;;;;;3.10;99.90;;;;;;5025466;28;19930;-45
2022/01/07 00:50:15;;;;;;;;;;;3.10;99.90;;;;;;5067980;28;19924;-45
2022/01/07 00:52:41;;;;;;;;;;;3.00;99.90;;;;;;5058704;28;19960;-45
2022/01/07 00:55:07;;;;;;;;;;;3.00;99.90;;;;;;5060301;28;20508;-48
2022/01/07 00:57:35;;;;;;;;;;;3.00;99.90;;;;;;5048497;28;19992;-49
2022/01/07 01:00:01;;;;;;;;;;;2.90;99.90;;;;;;5045950;28;19939;-45
2022/01/07 01:02:27;;;;;;;;;;;3.00;99.90;;;;;;5048030;28;19927;-47
2022/01/07 01:04:53;;;;;;;;;;;2.90;99.90;;;;;;5064068;28;19920;-47
2022/01/07 01:07:19;;;;;;;;;;;2.90;99.90;;;;;;5065964;28;19916;-44
2022/01/07 01:09:45;;;;;;;;;;;2.80;99.90;;;;;;5078781;28;19920;-44
2022/01/07 01:12:11;;;;;;;;;;;2.80;99.90;;;;;;5087726;28;20312;-46
2022/01/07 01:14:37;;;;;;;;;;;2.80;99.90;;;;;;5050963;28;19920;-45
2022/01/07 01:17:04;;;;;;;;;;;2.80;99.90;;;;;;5078853;28;19943;-45
2022/01/07 01:19:30;;;;;;;;;;;2.70;99.90;;;;;;5068135;28;19920;-46
2022/01/07 01:21:56;;;;;;;;;;;2.70;99.90;;;;;;5072327;28;19927;-45
2022/01/07 01:24:23;;;;;;;;;;;2.70;99.90;;;;;;5069057;28;19991;-45
2022/01/07 01:26:49;;;;;;;;;;;2.60;99.90;;;;;;5081912;28;19920;-44
2022/01/07 01:29:15;;;;;;;;;;;2.60;99.90;;;;;;5063925;28;20516;-45
2022/01/07 01:31:40;;;;;;;;;;;2.60;99.90;;;;;;5072517;28;19916;-46
2022/01/07 01:34:06;;;;;;;;;;;2.60;99.90;;;;;;5080465;28;20009;-45
2022/01/07 01:36:32;;;;;;;;;;;2.60;99.90;;;;;;5064220;28;20370;-48
2022/01/07 01:38:59;;;;;;;;;;;2.60;99.90;;;;;;5072030;28;19931;-44
2022/01/07 01:41:27;;;;;;;;;;;2.60;99.90;;;;;;5088615;28;19930;-45
2022/01/07 01:43:53;;;;;;;;;;;2.50;99.90;;;;;;5084898;28;20364;-47
2022/01/07 01:46:19;;;;;;;;;;;2.50;99.90;;;;;;5084964;28;19919;-49
2022/01/07 01:48:45;;;;;;;;;;;2.50;99.90;;;;;;5087931;28;20269;-45
2022/01/07 01:51:11;;;;;;;;;;;2.50;99.90;;;;;;5086188;28;19927;-47
2022/01/07 01:53:37;;;;;;;;;;;2.50;99.90;;;;;;5072128;28;19947;-47
2022/01/07 01:56:04;;;;;;;;;;;2.50;99.90;;;;;;5091285;28;20282;-45
2022/01/07 01:58:30;;;;;;;;;;;2.50;99.90;;;;;;5067047;28;20387;-45
2022/01/07 02:00:55;;;;;;;;;;;2.40;99.90;;;;;;5079049;28;20019;-47
2022/01/07 02:03:22;;;;;;;;;;;2.40;99.90;;;;;;5086521;28;19919;-47
2022/01/07 02:05:48;;;;;;;;;;;2.40;99.90;;;;;;5060884;28;19920;-47
2022/01/07 02:08:14;;;;;;;;;;;2.40;99.90;;;;;;5068125;28;19916;-44
2022/01/07 02:10:42;;;;;;;;;;;2.40;99.90;;;;;;5072646;28;19927;-47
2022/01/07 02:13:08;;;;;;;;;;;2.40;99.90;;;;;;5068368;28;19920;-46
2022/01/07 02:15:34;;;;;;;;;;;2.40;99.90;;;;;;5087545;28;19924;-47
2022/01/07 02:18:00;;;;;;;;;;;2.40;99.90;;;;;;5065754;28;19922;-48
2022/01/07 02:20:28;;;;;;;;;;;2.30;99.90;;;;;;5071045;28;19920;-45
2022/01/07 02:22:57;;;;;;;;;;;2.40;99.90;;;;;;5066360;28;19994;-44
2022/01/07 02:25:24;;;;;;;;;;;3.50;99.90;;;;;;5054141;28;20031;-46
2022/01/07 02:27:50;;;;;;;;;;;2.30;99.90;;;;;;5040508;28;19920;-45
2022/01/07 02:30:21;;;;;;;;;;;2.30;99.90;;;;;;5086430;28;19935;-47
2022/01/07 02:32:47;;;;;;;;;;;2.30;99.90;;;;;;5090131;28;20006;-44
2022/01/07 02:35:13;;;;;;;;;;;2.30;99.90;;;;;;5071179;28;20381;-45
2022/01/07 02:37:39;;;;;;;;;;;2.30;99.90;;;;;;5088037;28;19920;-46
2022/01/07 02:40:07;;;;;;;;;;;2.30;99.90;;;;;;5060345;28;19926;-49
2022/01/07 02:42:53;;;;;;;;;;;2.30;99.90;;;;;;5101157;27;20358;-48
2022/01/07 02:45:19;;;;;;;;;;;2.30;99.90;;;;;;5074822;28;20294;-45
2022/01/07 02:47:59;;;;;;;;;;;2.20;99.90;;;;;;5065361;28;19916;-47
2022/01/07 02:50:26;;;;;;;;;;;2.30;99.90;;;;;;5050429;28;19928;-46
2022/01/07 02:52:52;;;;;;;;;;;2.30;99.90;;;;;;5066158;28;19916;-49
2022/01/07 02:55:19;;;;;;;;;;;2.30;99.90;;;;;;5068908;28;19924;-45
2022/01/07 02:57:45;;;;;;;;;;;2.30;99.90;;;;;;5084952;28;20042;-46
2022/01/07 03:00:11;;;;;;;;;;;2.30;99.90;;;;;;5063104;28;20014;-43
2022/01/07 03:02:37;;;;;;;;;;;2.30;99.90;;;;;;5070752;28;19924;-45
2022/01/07 03:05:03;;;;;;;;;;;2.30;99.90;;;;;;5086875;28;20444;-46
2022/01/07 03:07:31;;;;;;;;;;;2.20;99.90;;;;;;5085013;28;20370;-46
2022/01/07 03:09:57;;;;;;;;;;;2.30;99.90;;;;;;5069525;28;19931;-45
2022/01/07 03:12:23;;;;;;;;;;;2.30;99.90;;;;;;5067237;28;19974;-44
2022/01/07 03:14:49;;;;;;;;;;;2.20;99.90;;;;;;5063934;28;19947;-46
2022/01/07 03:17:16;;;;;;;;;;;2.30;99.90;;;;;;5047224;28;19966;-44
2022/01/07 03:19:42;;;;;;;;;;;2.30;99.90;;;;;;5049371;28;19920;-45
2022/01/07 03:22:09;;;;;;;;;;;2.30;99.90;;;;;;5065145;28;19982;-44
2022/01/07 03:24:35;;;;;;;;;;;2.30;99.90;;;;;;5046889;28;20363;-44
2022/01/07 03:27:01;;;;;;;;;;;2.30;99.90;;;;;;5056858;28;19951;-46
2022/01/07 03:29:26;;;;;;;;;;;2.30;99.90;;;;;;5056810;28;19923;-47
2022/01/07 03:31:52;;;;;;;;;;;2.30;99.90;;;;;;5042444;28;19917;-48
2022/01/07 03:34:18;;;;;;;;;;;2.30;99.90;;;;;;5060834;28;19956;-45
2022/01/07 03:36:44;;;;;;;;;;;2.30;99.90;;;;;;5046605;28;20374;-45
2022/01/07 03:39:11;;;;;;;;;;;2.30;99.90;;;;;;5046967;28;19917;-44
2022/01/07 03:41:37;;;;;;;;;;;2.20;99.90;;;;;;5058381;28;20347;-45
2022/01/07 03:44:03;;;;;;;;;;;2.20;99.90;;;;;;5072837;28;20026;-44
2022/01/07 03:46:29;;;;;;;;;;;2.30;99.90;;;;;;5048358;28;19925;-45
2022/01/07 03:48:56;;;;;;;;;;;2.30;99.90;;;;;;5026307;28;19924;-45
2022/01/07 03:51:22;;;;;;;;;;;2.30;99.90;;;;;;5060815;28;20062;-44
2022/01/07 03:53:47;;;;;;;;;;;2.30;99.90;;;;;;5055442;28;20409;-45
2022/01/07 03:56:17;;;;;;;;;;;2.30;99.90;;;;;;5045805;28;19920;-45
2022/01/07 03:58:44;;;;;;;;;;;2.30;99.90;;;;;;5064422;28;19924;-46
2022/01/07 04:01:10;;;;;;;;;;;2.30;99.90;;;;;;5047709;28;20007;-44
2022/01/07 04:03:36;;;;;;;;;;;2.30;99.90;;;;;;5061841;28;20276;-44
2022/01/07 04:06:02;;;;;;;;;;;2.30;99.90;;;;;;5065496;28;19927;-46
2022/01/07 04:08:28;;;;;;;;;;;2.30;99.90;;;;;;5046285;28;19920;-45
2022/01/07 04:10:54;;;;;;;;;;;2.40;99.90;;;;;;5039355;28;20279;-44
2022/01/07 04:13:20;;;;;;;;;;;2.40;99.90;;;;;;5055283;28;19931;-46
2022/01/07 04:15:46;;;;;;;;;;;2.30;99.90;;;;;;5060717;28;19926;-46
2022/01/07 04:18:12;;;;;;;;;;;2.30;99.90;;;;;;5042514;28;19916;-44
2022/01/07 04:20:38;;;;;;;;;;;2.30;99.90;;;;;;5059372;28;19924;-44
2022/01/07 04:23:04;;;;;;;;;;;2.30;99.90;;;;;;5044291;28;20368;-43
2022/01/07 04:25:30;;;;;;;;;;;2.40;99.90;;;;;;5040124;28;19921;-44
2022/01/07 04:27:58;;;;;;;;;;;2.40;99.90;;;;;;5050246;28;19920;-43
2022/01/07 04:30:29;;;;;;;;;;;2.40;99.90;;;;;;5062775;28;19928;-43
2022/01/07 04:32:55;;;;;;;;;;;2.40;99.90;;;;;;5045335;28;20101;-45
2022/01/07 04:35:21;;;;;;;;;;;2.40;99.90;;;;;;5042976;28;19973;-45
2022/01/07 04:37:47;;;;;;;;;;;2.40;99.90;;;;;;5043564;28;20674;-47
2022/01/07 04:40:14;;;;;;;;;;;2.40;99.90;;;;;;5039206;28;19944;-45
2022/01/07 04:42:39;;;;;;;;;;;2.40;99.90;;;;;;5043772;28;20050;-45
2022/01/07 04:45:06;;;;;;;;;;;2.40;99.90;;;;;;5077706;28;20007;-43
2022/01/07 04:47:34;;;;;;;;;;;2.40;99.90;;;;;;5063266;28;19925;-45
2022/01/07 04:50:05;;;;;;;;;;;2.40;99.90;;;;;;5048075;28;19916;-43
2022/01/07 04:52:31;;;;;;;;;;;2.50;99.90;;;;;;5057099;28;20016;-47
2022/01/07 04:54:57;;;;;;;;;;;2.50;99.90;;;;;;5060405;28;20002;-46
2022/01/07 04:57:23;;;;;;;;;;;2.50;99.90;;;;;;5040735;28;19928;-43
2022/01/07 04:59:49;;;;;;;;;;;2.50;99.90;;;;;;5061469;28;20447;-46
2022/01/07 05:02:19;;;;;;;;;;;2.50;99.90;;;;;;5057620;28;20152;-46
2022/01/07 05:04:45;;;;;;;;;;;2.50;99.90;;;;;;5039554;28;19978;-47
2022/01/07 05:07:29;;;;;;;;;;;2.50;99.90;;;;;;5064660;28;20240;-44
2022/01/07 05:09:55;;;;;;;;;;;2.50;99.90;;;;;;5067463;28;19920;-47
2022/01/07 05:12:21;;;;;;;;;;;2.50;99.90;;;;;;5057358;28;19921;-44
2022/01/07 05:14:47;;;;;;;;;;;2.50;99.90;;;;;;5051553;28;19916;-47
2022/01/07 05:17:13;;;;;;;;;;;2.60;99.90;;;;;;5068046;28;20382;-47
2022/01/07 05:19:39;;;;;;;;;;;2.60;99.90;;;;;;5050131;28;19924;-48
2022/01/07 05:22:05;;;;;;;;;;;2.60;99.90;;;;;;5055011;28;19916;-45
2022/01/07 05:27:53;;;;;;;;;;;2.60;99.90;;;;;;5070663;28;19984;-47
2022/01/07 05:30:19;;;;;;;;;;;2.60;99.90;;;;;;5043356;28;19950;-46
2022/01/07 05:32:44;;;;;;;;;;;2.60;99.90;;;;;;5066576;28;19920;-46
2022/01/07 05:35:10;;;;;;;;;;;2.70;99.90;;;;;;5073195;28;20308;-46
2022/01/07 05:37:37;;;;;;;;;;;2.70;99.90;;;;;;5051953;28;19924;-45
2022/01/07 05:40:03;;;;;;;;;;;2.70;99.90;;;;;;5063129;28;20481;-44
2022/01/07 06:02:58;;;;;;;;;;;2.80;99.90;;;;;;5057943;28;19931;-45
2022/01/07 06:05:24;;;;;;;;;;;2.80;99.90;;;;;;5069966;28;20371;-44
2022/01/07 06:07:50;;;;;;;;;;;2.80;99.90;;;;;;5065179;28;19928;-48
2022/01/07 06:10:16;;;;;;;;;;;2.80;99.90;;;;;;5078610;28;19924;-47
2022/01/07 06:12:43;;;;;;;;;;;2.90;99.90;;;;;;5083897;28;19942;-44
2022/01/07 06:15:09;;;;;;;;;;;2.80;99.90;;;;;;5051640;28;19924;-46
2022/01/07 06:17:59;;;;;;;;;;;2.90;99.90;;;;;;5074641;28;19927;-46
2022/01/07 06:20:25;;;;;;;;;;;2.90;99.90;;;;;;5069663;28;19920;-45
2022/01/07 06:22:51;;;;;;;;;;;2.90;99.90;;;;;;5082611;28;19995;-45
2022/01/07 06:25:17;;;;;;;;;;;2.90;99.90;;;;;;5069295;28;19924;-43
2022/01/07 06:27:43;;;;;;;;;;;2.90;99.90;;;;;;5085572;28;19916;-43
2022/01/07 06:30:09;;;;;;;;;;;3.00;99.90;;;;;;5085720;28;19923;-45
2022/01/07 06:32:36;;;;;;;;;;;3.00;99.90;;;;;;5084796;28;19915;-44
2022/01/07 06:35:02;;;;;;;;;;;3.00;99.90;;;;;;5069063;28;19926;-44
2022/01/07 06:37:29;;;;;;;;;;;2.90;99.90;;;;;;5099139;27;19924;-47
2022/01/07 06:39:55;;;;;;;;;;;3.10;99.90;;;;;;5079338;28;20340;-45
2022/01/07 06:42:22;;;;;;;;;;;3.20;99.90;;;;;;5102642;28;19920;-43
2022/01/07 06:44:49;;;;;;;;;;;3.00;99.90;;;;;;5087030;28;19924;-43
2022/01/07 06:47:14;;;;;;;;;;;3.10;99.90;;;;;;5068983;28;19920;-45
2022/01/07 06:49:42;;;;;;;;;;;3.20;99.90;;;;;;5068613;28;19961;-43
2022/01/07 06:52:08;;;;;;;;;;;3.00;99.90;;;;;;5085835;28;20374;-45
2022/01/07 06:54:34;;;;;;;;;;;3.10;99.90;;;;;;5087231;28;20003;-44
2022/01/07 06:57:00;;;;;;;;;;;3.10;99.90;;;;;;5084353;28;19920;-47
2022/01/07 06:59:27;;;;;;;;;;;2.80;99.90;;;;;;5047902;28;20342;-45
2022/01/07 07:01:53;;;;;;;;;;;3.10;99.90;;;;;;5077385;28;20397;-42
2022/01/07 07:04:20;;;;;;;;;;;3.10;99.90;;;;;;5064972;28;19956;-44
2022/01/07 07:06:46;;;;;;;;;;;3.00;99.90;;;;;;5098780;27;19931;-43
2022/01/07 07:09:12;;;;;;;;;;;3.00;99.90;;;;;;5095459;27;20291;-43
2022/01/07 07:11:39;;;;;;;;;;;3.10;99.90;;;;;;5051050;28;19931;-42
2022/01/07 07:14:05;;;;;;;;;;;3.20;99.90;;;;;;5080544;28;19916;-44
2022/01/07 07:16:31;;;;;;;;;;;3.10;99.90;;;;;;5047383;28;19931;-45
2022/01/07 07:18:57;;;;;;;;;;;3.20;99.90;;;;;;5064618;28;19916;-46
2022/01/07 07:21:23;;;;;;;;;;;3.20;99.90;;;;;;5050907;28;19970;-43
2022/01/07 07:23:49;;;;;;;;;;;3.10;99.90;;;;;;5048933;28;19917;-44
2022/01/07 07:26:24;;;;;;;;;;;3.10;99.90;;;;;;5055237;28;19924;-45
2022/01/07 07:28:50;;;;;;;;;;;3.10;99.90;;;;;;5061527;28;19920;-48
2022/01/07 07:31:18;;;;;;;;;;;;;;;;;;5043502;28;19916;-46
2022/01/07 07:36:31;;;;;;;;;;;3.10;99.90;;;;;;5063917;28;19920;-44
2022/01/07 07:38:58;;;;;;;;;;;3.10;99.90;;;;;;5078348;28;19921;-43
2022/01/07 07:41:25;;;;;;;;;;;3.10;99.90;;;;;;5063750;28;19962;-45
2022/01/07 07:43:51;;;;;;;;;;;3.10;99.90;;;;;;5067045;28;19920;-45
2022/01/07 07:46:19;;;;;;;;;;;3.20;99.90;;;;;;5064218;28;19955;-45
2022/01/07 07:48:46;;;;;;;;;;;3.20;99.90;;;;;;5050245;28;19920;-44
2022/01/07 07:51:12;;;;;;;;;;;3.20;99.90;;;;;;5031180;28;20007;-45
2022/01/07 07:53:39;;;;;;;;;;;3.20;99.90;;;;;;5047230;28;19924;-43
2022/01/07 07:56:10;;;;;;;;;;;3.30;99.90;;;;;;5080434;28;19920;-48
2022/01/07 07:58:36;;;;;;;;;;;3.20;99.90;;;;;;5046423;28;19970;-44
2022/01/07 08:01:02;;;;;;;;;;;3.20;99.90;;;;;;5051794;28;19924;-44
2022/01/07 08:03:28;;;;;;;;;;;3.30;99.90;;;;;;5033374;28;19971;-46
2022/01/07 08:05:54;;;;;;;;;;;3.30;99.90;;;;;;5064590;28;20014;-45
2022/01/07 08:08:20;;;;;;;;;;;3.30;99.90;;;;;;5047034;28;19920;-42
2022/01/07 08:10:53;;;;;;;;;;;3.30;99.90;;;;;;5065960;28;20285;-45
2022/01/07 08:15:57;;;;;;;;;;;3.40;99.90;;;;;;5050403;28;19924;-45
2022/01/07 08:16:19;;;;;;;;;;;3.40;99.90;;;;;;5063894;28;19924;-47
2022/01/07 08:18:47;;;;;;;;;;;3.40;99.90;;;;;;5039735;28;19920;-44
2022/01/07 08:21:13;;;;;;;;;;;3.40;99.90;;;;;;5065055;28;19916;-46
2022/01/07 08:23:40;;;;;;;;;;;3.50;99.90;;;;;;5048896;28;20206;-46
2022/01/07 08:26:08;;;;;;;;;;;3.20;99.90;;;;;;5064392;28;19920;-44
2022/01/07 08:28:40;;;;;;;;;;;3.50;99.90;;;;;;5066905;28;19962;-46
2022/01/07 08:36:18;;;;;;;;;;;3.60;99.90;;;;;;5063294;28;21107;-46
2022/01/07 08:38:46;;;;;;;;;;;3.60;99.90;;;;;;5064390;28;19924;-44
2022/01/07 08:41:12;;;;;;;;;;;3.60;99.90;;;;;;5048631;28;19920;-46
2022/01/07 08:43:38;;;;;;;;;;;3.70;99.90;;;;;;5052182;28;20385;-44
2022/01/07 08:46:07;;;;;;;;;;;3.70;99.90;;;;;;5051624;28;20059;-44
2022/01/07 08:48:35;;;;;;;;;;;3.80;99.90;;;;;;5069046;28;19995;-44
2022/01/07 08:51:03;;;;;;;;;;;3.80;99.90;;;;;;5070494;28;20355;-43
2022/01/07 08:53:29;;;;;;;;;;;3.90;99.90;;;;;;5051548;28;19931;-44
2022/01/07 08:55:54;;;;;;;;;;;3.90;99.90;;;;;;5066317;28;19924;-46
2022/01/07 08:58:20;;;;;;;;;;;3.90;99.90;;;;;;5068402;28;20363;-45
2022/01/07 09:00:46;;;;;;;;;;;3.90;99.90;;;;;;5061027;28;19931;-46
2022/01/07 09:03:15;;;;;;;;;;;4.00;99.90;;;;;;5049008;28;20022;-45
2022/01/07 09:05:41;;;;;;;;;;;4.00;99.90;;;;;;5067098;28;20278;-45
2022/01/07 09:08:09;;;;;;;;;;;4.10;99.90;;;;;;5048328;28;19939;-44
2022/01/07 09:10:35;;;;;;;;;;;4.10;99.90;;;;;;5065830;28;20366;-47
2022/01/07 09:13:01;;;;;;;;;;;4.10;99.90;;;;;;5079027;28;19943;-46
2022/01/07 09:15:26;;;;;;;;;;;4.10;99.90;;;;;;5064530;28;20116;-44
2022/01/07 09:17:52;;;;;;;;;;;4.20;99.90;;;;;;5064664;28;19927;-46
2022/01/07 09:20:18;;;;;;;;;;;4.20;99.90;;;;;;5045320;28;19930;-46
2022/01/07 09:22:44;;;;;;;;;;;4.20;99.90;;;;;;5034394;28;19917;-45
2022/01/07 09:25:10;;;;;;;;;;;4.20;99.90;;;;;;5059937;28;19924;-49
2022/01/07 09:27:36;;;;;;;;;;;4.30;99.90;;;;;;5031795;28;20001;-44
2022/01/07 09:30:03;;;;;;;;;;;4.30;99.90;;;;;;5067456;28;19923;-48
2022/01/07 09:32:29;;;;;;;;;;;4.30;99.90;;;;;;5066388;28;19917;-46
2022/01/07 09:34:54;;;;;;;;;;;4.30;99.90;;;;;;5048631;28;20450;-45
2022/01/07 09:37:21;;;;;;;;;;;4.40;99.90;;;;;;5048217;28;20305;-44
2022/01/07 09:39:47;;;;;;;;;;;4.40;99.90;;;;;;5066775;28;19920;-46
2022/01/07 09:42:15;;;;;;;;;;;4.40;99.90;;;;;;5049223;28;20019;-48
2022/01/07 09:44:42;;;;;;;;;;;4.40;99.90;;;;;;5031209;28;19921;-49
2022/01/07 09:47:11;;;;;;;;;;;4.40;99.90;;;;;;5066357;28;19943;-49
2022/01/07 09:49:38;;;;;;;;;;;4.50;99.90;;;;;;5066326;28;19924;-45
2022/01/07 09:52:04;;;;;;;;;;;4.50;99.90;;;;;;5064165;28;19971;-44
2022/01/07 09:54:29;;;;;;;;;;;4.60;99.90;;;;;;5048650;28;19920;-48
2022/01/07 09:56:55;;;;;;;;;;;4.60;99.90;;;;;;5079336;28;19932;-44
2022/01/07 09:59:22;;;;;;;;;;;4.60;99.90;;;;;;5065662;28;20314;-47
2022/01/07 10:08:33;;;;;;;;;;;4.60;99.90;;;;;;5070941;28;19908;-46
2022/01/07 10:11:19;;;;;;;;;;;4.60;99.90;;;;;;5066830;28;19935;-45
2022/01/07 10:13:49;;;;;;;;;;;4.60;99.90;;;;;;5084902;28;19962;-46
2022/01/07 10:16:17;;;;;;;;;;;4.60;99.90;;;;;;5075826;28;19924;-45
2022/01/07 10:18:43;;;;;;;;;;;4.60;99.90;;;;;;5063930;28;19931;-46
2022/01/07 10:21:10;;;;;;;;;;;4.60;99.90;;;;;;5058106;28;20424;-46
2022/01/07 10:23:35;;;;;;;;;;;4.60;99.90;;;;;;5059147;28;20060;-46
2022/01/07 10:26:02;;;;;;;;;;;4.50;99.90;;;;;;5087464;28;20219;-45
2022/01/07 10:28:30;;;;;;;;;;;4.50;99.90;;;;;;5071096;28;19957;-45
2022/01/07 10:30:56;;;;;;;;;;;4.50;99.90;;;;;;5072834;28;19992;-45
2022/01/07 10:33:23;;;;;;;;;;;4.50;99.90;;;;;;5085115;28;20014;-51
2022/01/07 10:35:51;;;;;;;;;;;4.50;99.90;;;;;;5072390;28;19927;-51
2022/01/07 10:38:28;;;;;;;;;;;4.50;99.90;;;;;;5054791;28;20186;-49
2022/01/07 10:40:55;;;;;;;;;;;4.40;99.90;;;;;;5086254;28;19923;-51
2022/01/07 10:43:32;;;;;;;;;;;4.40;99.90;;;;;;5055039;28;19972;-51
2022/01/07 10:45:59;;;;;;;;;;;4.40;99.90;;;;;;5083345;28;19915;-49
2022/01/07 10:48:47;;;;;;;;;;;4.40;99.90;;;;;;5086595;28;20392;-50
2022/01/07 10:51:13;;;;;;;;;;;4.50;99.90;;;;;;5071071;28;19931;-51
2022/01/07 10:53:40;;;;;;;;;;;4.60;99.90;;;;;;5085545;28;19916;-50
2022/01/07 10:56:10;;;;;;;;;;;4.80;99.90;;;;;;5071329;28;19924;-49
2022/01/07 11:05:24;;;;;;;;;;;5.00;99.90;;;;;;5082948;28;19952;-51
2022/01/07 11:07:50;;;;;;;;;;;4.90;99.90;;;;;;5082419;28;19927;-49
2022/01/07 11:10:16;;;;;;;;;;;4.90;99.90;;;;;;5038004;28;19928;-51
2022/01/07 11:12:42;;;;;;;;;;;4.90;99.90;;;;;;5066589;28;19981;-49
2022/01/07 11:15:10;;;;;;;;;;;4.90;99.90;;;;;;5047829;28;19973;-49
2022/01/07 11:17:37;;;;;;;;;;;4.90;99.90;;;;;;5060937;28;19920;-51
2022/01/07 11:47:29;;;;;;;;;;;5.10;99.90;;;;;;5064855;28;19913;-50
2022/01/07 11:50:05;;;;;;;;;;;5.20;99.90;;;;;;5063408;28;20313;-48
2022/01/07 11:52:33;;;;;;;;;;;5.20;99.90;;;;;;5066677;28;19928;-50
2022/01/07 11:55:32;;;;;;;;;;;5.30;99.90;;;;;;5062898;28;19916;-51
2022/01/07 11:58:01;;;;;;;;;;;5.30;99.90;;;;;;5031260;28;19920;-50
2022/01/07 12:00:49;;;;;;;;;;;5.30;99.90;;;;;;5040508;28;19920;-50
2022/01/07 12:03:32;;;;;;;;;;;5.40;99.90;;;;;;5043408;28;20362;-48
2022/01/07 12:05:58;;;;;;;;;;;5.40;99.90;;;;;;5061530;28;19982;-48
2022/01/07 12:08:39;;;;;;;;;;;5.50;99.90;;;;;;5044669;28;19924;-51
2022/01/07 12:11:09;;;;;;;;;;;5.50;99.90;;;;;;5061814;28;19928;-49
2022/01/07 12:13:40;;;;;;;;;;;5.50;99.90;;;;;;5063897;28;20518;-52
2022/01/07 12:16:06;;;;;;;;;;;5.50;99.90;;;;;;5060222;28;19935;-49
2022/01/07 12:18:33;;;;;;;;;;;5.60;99.90;;;;;;5061780;28;19916;-51
2022/01/07 12:20:59;;;;;;;;;;;5.60;99.90;;;;;;5030555;28;20015;-48
2022/01/07 12:23:25;;;;;;;;;;;5.70;99.90;;;;;;5049677;28;20018;-49
2022/01/07 12:25:51;;;;;;;;;;;5.60;99.90;;;;;;5045863;28;19932;-52
2022/01/07 12:28:18;;;;;;;;;;;5.70;99.90;;;;;;5063171;28;20015;-49
2022/01/07 12:30:44;;;;;;;;;;;5.70;99.90;;;;;;5060794;28;20034;-47
2022/01/07 12:33:11;;;;;;;;;;;5.70;99.90;;;;;;5024062;28;20015;-48
2022/01/07 12:35:37;;;;;;;;;;;5.80;99.90;;;;;;5045883;28;19981;-48
2022/01/07 12:38:14;;;;;;;;;;;5.80;99.90;;;;;;5046495;28;19930;-51
2022/01/07 12:40:39;;;;;;;;;;;5.80;99.90;;;;;;5027565;28;19920;-48
2022/01/07 12:43:05;;;;;;;;;;;5.80;99.90;;;;;;5020675;28;20480;-49
2022/01/07 12:45:31;;;;;;;;;;;5.80;99.90;;;;;;5043666;28;19928;-49
2022/01/07 12:47:57;;;;;;;;;;;5.80;99.90;;;;;;5060762;28;20007;-50
2022/01/07 12:50:24;;;;;;;;;;;5.80;99.90;;;;;;5076013;28;19968;-52
2022/01/07 12:52:50;;;;;;;;;;;5.80;99.90;;;;;;5046120;28;20523;-50
2022/01/07 12:55:35;;;;;;;;;;;5.80;99.90;;;;;;5049070;28;19916;-51
2022/01/07 12:58:03;;;;;;;;;;;5.70;99.90;;;;;;5046201;28;20377;-52
2022/01/07 13:00:29;;;;;;;;;;;5.70;99.90;;;;;;5062496;28;20002;-51
2022/01/07 13:02:56;;;;;;;;;;;5.70;99.90;;;;;;5062766;28;19916;-49
2022/01/07 13:05:24;;;;;;;;;;;5.70;99.90;;;;;;5063245;28;19974;-50
2022/01/07 13:07:54;;;;;;;;;;;5.60;99.90;;;;;;5067161;28;19920;-48
2022/01/07 13:10:24;;;;;;;;;;;5.60;99.90;;;;;;5062068;28;19920;-48
2022/01/07 13:13:03;;;;;;;;;;;5.50;99.90;;;;;;5067233;28;19916;-48
2022/01/07 13:15:51;;;;;;;;;;;5.40;99.90;;;;;;5064992;28;20370;-47
2022/01/07 13:18:29;;;;;;;;;;;5.40;99.90;;;;;;5067258;28;19943;-48
2022/01/07 13:21:15;;;;;;;;;;;5.40;99.90;;;;;;5064646;28;19917;-47
2022/01/07 13:23:42;;;;;;;;;;;5.30;99.90;;;;;;5058521;28;19920;-49
2022/01/07 13:26:09;;;;;;;;;;;5.20;99.90;;;;;;5060931;28;20378;-48
2022/01/07 13:28:39;;;;;;;;;;;5.10;99.90;;;;;;5056527;28;19920;-49
2022/01/07 13:31:12;;;;;;;;;;;5.00;99.90;;;;;;5065324;28;20389;-47
2022/01/07 13:33:39;;;;;;;;;;;5.00;99.90;;;;;;5064950;28;20340;-47
2022/01/07 13:36:09;;;;;;;;;;;5.30;99.90;;;;;;5064039;28;19921;-48
2022/01/07 13:38:36;;;;;;;;;;;5.00;99.90;;;;;;5068469;28;20405;-48
2022/01/07 13:41:02;;;;;;;;;;;;;;;;;;5068655;28;19920;-48
2022/01/07 13:43:29;;;;;;;;;;;4.90;99.90;;;;;;5071552;28;19920;-47
2022/01/07 13:46:06;;;;;;;;;;;4.90;99.90;;;;;;5071256;28;20385;-47
2022/01/07 13:48:32;;;;;;;;;;;4.90;99.90;;;;;;5068161;28;19916;-50
2022/01/07 13:51:08;;;;;;;;;;;4.80;99.90;;;;;;5061737;28;20348;-48
2022/01/07 13:53:35;;;;;;;;;;;5.70;99.90;;;;;;5071233;28;19973;-52
2022/01/07 13:56:08;;;;;;;;;;;4.70;99.90;;;;;;5071351;28;20273;-49
2022/01/07 13:58:34;;;;;;;;;;;4.70;99.90;;;;;;5038788;28;19916;-47
2022/01/07 14:01:06;;;;;;;;;;;4.70;99.90;;;;;;5067867;28;20583;-49
2022/01/07 14:03:49;;;;;;;;;;;4.70;99.90;;;;;;5071089;28;20050;-51
2022/01/07 14:06:17;;;;;;;;;;;4.60;99.90;;;;;;5048503;28;20003;-51
2022/01/07 14:08:45;;;;;;;;;;;4.60;99.90;;;;;;5088529;28;19915;-50
2022/01/07 14:11:16;;;;;;;;;;;4.60;99.90;;;;;;5048740;28;19968;-49
2022/01/07 14:13:43;;;;;;;;;;;4.50;99.90;;;;;;5055090;28;20040;-49
2022/01/07 14:16:21;;;;;;;;;;;4.50;99.90;;;;;;5049414;28;19927;-49
2022/01/07 14:18:56;;;;;;;;;;;4.40;99.90;;;;;;5049833;28;19920;-52
2022/01/07 14:21:22;;;;;;;;;;;4.40;99.90;;;;;;5048349;28;19926;-51
2022/01/07 14:23:48;;;;;;;;;;;4.30;99.90;;;;;;5051002;28;20560;-48
2022/01/07 14:26:18;;;;;;;;;;;4.30;99.90;;;;;;5067999;28;19920;-46
2022/01/07 14:28:45;;;;;;;;;;;4.30;99.90;;;;;;5028967;28;19916;-43
2022/01/07 14:31:13;;;;;;;;;;;4.30;99.90;;;;;;5078383;28;19916;-44
2022/01/07 14:33:42;;;;;;;;;;;4.30;99.90;;;;;;5083036;28;19916;-44
2022/01/07 14:36:10;;;;;;;;;;;4.20;99.90;;;;;;5045623;28;20440;-44
2022/01/07 14:38:36;;;;;;;;;;;4.20;99.90;;;;;;5064369;28;19916;-44
2022/01/07 14:41:02;;;;;;;;;;;4.20;99.90;;;;;;5046257;28;19934;-44
2022/01/07 14:43:27;;;;;;;;;;;4.20;99.90;;;;;;5046013;28;19928;-45
2022/01/07 14:45:53;;;;;;;;;;;4.20;99.90;;;;;;5077641;28;19924;-46
2022/01/07 14:48:21;;;;;;;;;;;4.10;99.90;;;;;;5048663;28;19920;-44
2022/01/07 14:50:47;;;;;;;;;;;4.10;99.90;;;;;;5062277;28;19932;-45
2022/01/07 14:53:13;;;;;;;;;;;4.10;99.90;;;;;;5015139;28;19920;-46
2022/01/07 14:55:38;;;;;;;;;;;4.00;99.90;;;;;;5046095;28;20600;-44
2022/01/07 14:58:05;;;;;;;;;;;3.20;99.90;;;;;;5065327;28;19920;-45
2022/01/07 15:00:32;;;;;;;;;;;3.90;99.90;;;;;;5046192;28;19970;-46
2022/01/07 15:02:58;;;;;;;;;;;3.90;99.90;;;;;;5076918;28;19999;-46
2022/01/07 15:05:24;;;;;;;;;;;3.90;99.90;;;;;;5047957;28;20007;-47
2022/01/07 15:07:49;;;;;;;;;;;3.80;99.90;;;;;;5046379;28;19924;-45
2022/01/07 15:10:15;;;;;;;;;;;3.80;99.90;;;;;;5044940;28;19977;-43
2022/01/07 15:12:44;;;;;;;;;;;3.80;99.90;;;;;;5062639;28;19920;-44
2022/01/07 15:17:58;;;;;;;;;;;3.70;99.90;;;;;;5081781;28;19928;-44
2022/01/07 15:20:24;;;;;;;;;;;3.70;99.90;;;;;;5051547;28;20320;-48
2022/01/07 15:22:52;;;;;;;;;;;3.60;99.90;;;;;;5049491;28;20039;-43
2022/01/07 15:25:18;;;;;;;;;;;3.60;99.90;;;;;;5049414;28;19925;-43
2022/01/07 15:27:45;;;;;;;;;;;;;;;;;;5070960;28;19920;-44
2022/01/07 15:33:26;;;;;;;;;;;3.50;99.90;;;;;;5066495;28;19916;-43
2022/01/07 15:35:52;;;;;;;;;;;3.90;99.90;;;;;;5051949;28;20275;-43
2022/01/07 15:38:18;;;;;;;;;;;3.50;99.90;;;;;;5030971;28;19917;-44
2022/01/07 15:40:45;;;;;;;;;;;3.40;99.90;;;;;;5051418;28;20418;-43
2022/01/07 15:43:10;;;;;;;;;;;3.40;99.90;;;;;;5037095;28;19927;-44
2022/01/07 15:45:37;;;;;;;;;;;3.40;99.90;;;;;;5066837;28;20266;-45
2022/01/07 15:48:04;;;;;;;;;;;3.40;99.90;;;;;;5045723;28;19940;-44
2022/01/07 15:50:30;;;;;;;;;;;3.40;99.90;;;;;;5065075;28;19916;-44
2022/01/07 15:52:55;;;;;;;;;;;3.40;99.90;;;;;;5043276;28;20015;-45